createdAt,value
2017-11-08T00:00:53.873Z,6.6
2017-11-08T00:02:12.572Z,6.6
2017-11-08T00:03:31.259Z,6.5
2017-11-08T00:04:49.957Z,6.6
2017-11-08T00:06:08.608Z,6.6
2017-11-08T00:07:27.289Z,6.6
2017-11-08T00:08:46.016Z,6.6
2017-11-08T00:10:04.688Z,6.6
2017-11-08T00:11:23.341Z,6.6
2017-11-08T00:12:42.001Z,6.6
2017-11-08T00:14:00.683Z,6.6
2017-11-08T00:15:19.371Z,6.6
2017-11-08T00:16:38.013Z,6.7
2017-11-08T00:17:56.688Z,6.7
2017-11-08T00:19:15.341Z,6.7
2017-11-08T00:20:33.987Z,6.7
2017-11-08T00:21:52.661Z,6.6
2017-11-08T00:23:11.376Z,6.6
2017-11-08T00:24:30.031Z,6.5
2017-11-08T00:25:48.682Z,6.5
2017-11-08T00:27:07.370Z,6.5
2017-11-08T00:28:26.062Z,6.5
2017-11-08T00:29:44.714Z,6.5
2017-11-08T00:31:03.375Z,6.5
2017-11-08T00:32:22.023Z,6.5
2017-11-08T00:33:40.693Z,6.5
2017-11-08T00:34:59.343Z,6.5
2017-11-08T00:36:18.038Z,6.5
2017-11-08T00:37:36.726Z,6.5
2017-11-08T00:38:55.397Z,6.5
2017-11-08T00:40:14.047Z,6.6
2017-11-08T00:41:32.699Z,6.6
2017-11-08T00:42:51.397Z,6.6
2017-11-08T00:44:10.105Z,6.5
2017-11-08T00:45:28.777Z,6.5
2017-11-08T00:46:47.490Z,6.5
2017-11-08T00:48:06.175Z,6.4
2017-11-08T00:49:24.838Z,6.4
2017-11-08T00:50:43.482Z,6.4
2017-11-08T00:52:02.122Z,6.4
2017-11-08T00:53:20.838Z,6.4
2017-11-08T00:54:39.517Z,6.5
2017-11-08T00:55:58.162Z,6.5
2017-11-08T00:57:16.826Z,6.5
2017-11-08T00:58:35.474Z,6.5
2017-11-08T00:59:54.134Z,6.5
2017-11-08T01:01:12.786Z,6.5
2017-11-08T01:02:31.500Z,6.5
2017-11-08T01:03:50.148Z,6.5
2017-11-08T01:05:08.868Z,6.5
2017-11-08T01:06:27.531Z,6.5
2017-11-08T01:07:46.182Z,6.5
2017-11-08T01:09:04.830Z,6.5
2017-11-08T01:10:23.534Z,6.5
2017-11-08T01:11:42.215Z,6.5
2017-11-08T01:13:00.891Z,6.6
2017-11-08T01:14:19.545Z,6.5
2017-11-08T01:15:38.226Z,6.6
2017-11-08T01:16:56.895Z,6.6
2017-11-08T01:18:15.537Z,6.6
2017-11-08T01:19:34.186Z,6.6
2017-11-08T01:20:52.858Z,6.5
2017-11-08T01:22:11.514Z,6.5
2017-11-08T01:23:30.166Z,6.5
2017-11-08T01:24:48.808Z,6.5
2017-11-08T01:26:07.495Z,6.5
2017-11-08T01:27:26.206Z,6.5
2017-11-08T01:28:44.897Z,6.5
2017-11-08T01:30:03.545Z,6.5
2017-11-08T01:31:22.289Z,6.5
2017-11-08T01:32:40.937Z,6.5
2017-11-08T01:33:59.636Z,6.6
2017-11-08T01:35:18.321Z,6.6
2017-11-08T01:36:36.977Z,6.6
2017-11-08T01:37:55.698Z,6.6
2017-11-08T01:39:14.360Z,6.5
2017-11-08T01:40:33.041Z,6.5
2017-11-08T01:41:51.722Z,6.5
2017-11-08T01:43:10.372Z,6.5
2017-11-08T01:44:29.060Z,6.6
2017-11-08T01:45:47.742Z,6.5
2017-11-08T01:47:06.408Z,6.5
2017-11-08T01:48:25.064Z,6.5
2017-11-08T01:49:43.719Z,6.5
2017-11-08T01:51:02.373Z,6.5
2017-11-08T01:52:21.083Z,6.5
2017-11-08T01:53:39.732Z,6.5
2017-11-08T01:54:58.379Z,6.5
2017-11-08T01:56:17.061Z,6.5
2017-11-08T01:57:35.742Z,6.5
2017-11-08T01:58:54.431Z,6.4
2017-11-08T02:00:13.101Z,6.4
2017-11-08T02:01:31.780Z,6.4
2017-11-08T02:02:50.499Z,6.4
2017-11-08T02:04:09.181Z,6.4
2017-11-08T02:05:27.828Z,6.4
2017-11-08T02:06:46.497Z,6.5
2017-11-08T02:08:05.169Z,6.5
2017-11-08T02:09:23.853Z,6.5
2017-11-08T02:10:42.494Z,6.5
2017-11-08T02:12:01.140Z,6.4
2017-11-08T02:13:19.817Z,6.5
2017-11-08T02:14:38.523Z,6.4
2017-11-08T02:15:57.219Z,6.5
2017-11-08T02:17:15.865Z,6.3
2017-11-08T02:18:34.564Z,6.4
2017-11-08T02:19:53.224Z,6.4
2017-11-08T02:21:11.954Z,6.4
2017-11-08T02:22:30.598Z,6.4
2017-11-08T02:23:49.257Z,6.4
2017-11-08T02:25:07.906Z,6.4
2017-11-08T02:26:26.556Z,6.4
2017-11-08T02:27:45.208Z,6.4
2017-11-08T02:29:03.899Z,6.4
2017-11-08T02:30:22.556Z,6.5
2017-11-08T02:31:41.212Z,6.5
2017-11-08T02:32:59.873Z,6.5
2017-11-08T02:34:18.581Z,6.5
2017-11-08T02:35:37.228Z,6.4
2017-11-08T02:36:55.870Z,6.4
2017-11-08T02:38:14.523Z,6.5
2017-11-08T02:39:33.213Z,6.5
2017-11-08T02:40:51.913Z,6.5
2017-11-08T02:42:10.563Z,6.5
2017-11-08T02:43:29.212Z,6.5
2017-11-08T02:44:47.885Z,6.5
2017-11-08T02:46:06.532Z,6.4
2017-11-08T02:47:25.188Z,6.4
2017-11-08T02:48:43.837Z,6.4
2017-11-08T02:50:02.516Z,6.4
2017-11-08T02:51:21.208Z,6.4
2017-11-08T02:52:39.865Z,6.4
2017-11-08T02:53:58.524Z,6.4
2017-11-08T02:55:17.198Z,6.5
2017-11-08T02:56:35.899Z,6.4
2017-11-08T02:57:54.611Z,6.4
2017-11-08T02:59:13.266Z,6.4
2017-11-08T03:00:31.997Z,6.4
2017-11-08T03:01:50.655Z,6.4
2017-11-08T03:03:09.306Z,6.4
2017-11-08T03:04:27.959Z,6.4
2017-11-08T03:05:46.638Z,6.4
2017-11-08T03:07:05.312Z,6.3
2017-11-08T03:08:23.988Z,6.4
2017-11-08T03:09:42.644Z,6.4
2017-11-08T03:11:01.299Z,6.4
2017-11-08T03:12:19.952Z,6.3
2017-11-08T03:13:38.598Z,6.3
2017-11-08T03:14:57.293Z,6.3
2017-11-08T03:16:16.005Z,6.3
2017-11-08T03:17:34.657Z,6.3
2017-11-08T03:18:53.308Z,6.3
2017-11-08T03:20:12.014Z,6.3
2017-11-08T03:21:30.670Z,6.3
2017-11-08T03:22:49.333Z,6.3
2017-11-08T03:24:07.987Z,6.4
2017-11-08T03:25:26.702Z,6.4
2017-11-08T03:26:45.370Z,6.4
2017-11-08T03:28:04.016Z,6.4
2017-11-08T03:29:22.717Z,6.4
2017-11-08T03:30:41.356Z,6.4
2017-11-08T03:32:00.040Z,6.5
2017-11-08T03:33:18.694Z,6.4
2017-11-08T03:34:37.394Z,6.3
2017-11-08T03:35:56.093Z,6.4
2017-11-08T03:37:14.788Z,6.4
2017-11-08T03:38:33.434Z,6.4
2017-11-08T03:39:52.084Z,6.3
2017-11-08T03:41:10.742Z,6.4
2017-11-08T03:42:29.406Z,6.3
2017-11-08T03:43:48.057Z,6.3
2017-11-08T03:45:06.739Z,6.4
2017-11-08T03:46:25.389Z,6.3
2017-11-08T03:47:44.067Z,6.4
2017-11-08T03:49:02.705Z,6.4
2017-11-08T03:50:21.410Z,6.4
2017-11-08T03:51:40.139Z,6.4
2017-11-08T03:52:58.834Z,6.4
2017-11-08T03:54:17.488Z,6.4
2017-11-08T03:55:36.164Z,6.4
2017-11-08T03:56:54.814Z,6.4
2017-11-08T03:58:13.470Z,6.3
2017-11-08T03:59:32.130Z,6.3
2017-11-08T04:00:50.778Z,6.3
2017-11-08T04:02:09.424Z,6.3
2017-11-08T04:03:28.105Z,6.3
2017-11-08T04:04:46.776Z,6.3
2017-11-08T04:06:05.447Z,6.3
2017-11-08T04:07:24.101Z,6.3
2017-11-08T04:08:42.759Z,6.3
2017-11-08T04:10:01.439Z,6.3
2017-11-08T04:11:20.082Z,6.3
2017-11-08T04:12:38.725Z,6.2
2017-11-08T04:13:57.430Z,6.3
2017-11-08T04:15:16.098Z,6.2
2017-11-08T04:16:34.749Z,6.3
2017-11-08T04:17:53.398Z,6.2
2017-11-08T04:19:12.074Z,6.3
2017-11-08T04:20:30.754Z,6.3
2017-11-08T04:21:49.466Z,6.3
2017-11-08T04:23:08.130Z,6.2
2017-11-08T04:24:26.791Z,6.3
2017-11-08T04:25:45.459Z,6.2
2017-11-08T04:27:04.108Z,6.2
2017-11-08T04:28:22.758Z,6.3
2017-11-08T04:29:41.514Z,6.3
2017-11-08T04:31:00.161Z,6.2
2017-11-08T04:32:18.862Z,6.2
2017-11-08T04:33:37.532Z,6.2
2017-11-08T04:34:56.206Z,6.3
2017-11-08T04:36:14.906Z,6.3
2017-11-08T04:37:33.556Z,6.3
2017-11-08T04:38:52.220Z,6.3
2017-11-08T04:40:10.889Z,6.3
2017-11-08T04:41:29.541Z,6.2
2017-11-08T04:42:48.192Z,6.3
2017-11-08T04:44:06.841Z,6.3
2017-11-08T04:45:25.503Z,6.3
2017-11-08T04:46:44.149Z,6.3
2017-11-08T04:48:02.803Z,6.3
2017-11-08T04:49:21.528Z,6.3
2017-11-08T04:50:40.199Z,6.3
2017-11-08T04:51:58.848Z,6.2
2017-11-08T04:53:17.493Z,6.2
2017-11-08T04:54:36.145Z,6.2
2017-11-08T04:55:54.847Z,6.3
2017-11-08T04:57:13.502Z,6.2
2017-11-08T04:58:32.151Z,6.2
2017-11-08T04:59:50.834Z,6.2
2017-11-08T05:01:09.486Z,6.3
2017-11-08T05:02:28.151Z,6.3
2017-11-08T05:03:46.797Z,6.3
2017-11-08T05:05:05.447Z,6.3
2017-11-08T05:06:24.130Z,6.3
2017-11-08T05:07:42.775Z,6.3
2017-11-08T05:09:01.506Z,6.3
2017-11-08T05:10:20.174Z,6.3
2017-11-08T05:11:38.827Z,6.3
2017-11-08T05:12:57.519Z,6.3
2017-11-08T05:14:16.230Z,6.3
2017-11-08T05:15:34.880Z,6.4
2017-11-08T05:16:53.547Z,6.3
2017-11-08T05:18:12.199Z,6.3
2017-11-08T05:19:30.864Z,6.3
2017-11-08T05:20:49.522Z,6.3
2017-11-08T05:22:08.231Z,6.3
2017-11-08T05:23:26.905Z,6.3
2017-11-08T05:24:45.554Z,6.3
2017-11-08T05:26:04.250Z,6.3
2017-11-08T05:27:22.921Z,6.3
2017-11-08T05:28:41.577Z,6.3
2017-11-08T05:30:00.221Z,6.3
2017-11-08T05:31:18.864Z,6.3
2017-11-08T05:32:37.579Z,6.3
2017-11-08T05:33:56.260Z,6.3
2017-11-08T05:35:14.970Z,6.3
2017-11-08T05:36:33.615Z,6.4
2017-11-08T05:37:52.300Z,6.3
2017-11-08T05:39:10.946Z,6.3
2017-11-08T05:40:29.641Z,6.3
2017-11-08T05:41:48.339Z,6.3
2017-11-08T05:43:07.016Z,6.3
2017-11-08T05:44:25.659Z,6.3
2017-11-08T05:45:44.323Z,6.2
2017-11-08T05:47:02.969Z,6.2
2017-11-08T05:48:21.648Z,6.2
2017-11-08T05:49:40.325Z,6.3
2017-11-08T05:50:58.973Z,6.3
2017-11-08T05:52:17.617Z,6.3
2017-11-08T05:53:36.345Z,6.3
2017-11-08T05:54:55.038Z,6.3
2017-11-08T05:56:13.689Z,6.3
2017-11-08T05:57:32.382Z,6.3
2017-11-08T05:58:51.068Z,6.3
2017-11-08T06:00:09.733Z,6.3
2017-11-08T06:01:28.382Z,6.3
2017-11-08T06:02:47.052Z,6.3
2017-11-08T06:04:05.729Z,6.3
2017-11-08T06:05:24.430Z,6.3
2017-11-08T06:06:43.078Z,6.3
2017-11-08T06:08:01.723Z,6.3
2017-11-08T06:09:20.406Z,6.3
2017-11-08T06:10:39.056Z,6.3
2017-11-08T06:11:57.704Z,6.3
2017-11-08T06:13:16.361Z,6.3
2017-11-08T06:14:35.075Z,6.3
2017-11-08T06:15:53.708Z,6.3
2017-11-08T06:17:12.381Z,6.3
2017-11-08T06:18:31.051Z,6.3
2017-11-08T06:19:49.706Z,6.3
2017-11-08T06:21:08.388Z,6.3
2017-11-08T06:22:27.040Z,6.3
2017-11-08T06:23:45.688Z,6.3
2017-11-08T06:25:04.396Z,6.3
2017-11-08T06:26:23.038Z,6.3
2017-11-08T06:27:41.693Z,6.3
2017-11-08T06:29:00.400Z,6.3
2017-11-08T06:30:19.083Z,6.3
2017-11-08T06:31:37.744Z,6.3
2017-11-08T06:32:56.400Z,6.3
2017-11-08T06:34:15.062Z,6.3
2017-11-08T06:35:33.737Z,6.3
2017-11-08T06:36:52.383Z,6.3
2017-11-08T06:38:11.098Z,6.3
2017-11-08T06:39:29.756Z,6.3
2017-11-08T06:40:48.480Z,6.3
2017-11-08T06:42:07.130Z,6.3
2017-11-08T06:43:25.803Z,6.3
2017-11-08T06:44:44.450Z,6.3
2017-11-08T06:46:03.114Z,6.3
2017-11-08T06:47:21.768Z,6.4
2017-11-08T06:48:40.408Z,6.3
2017-11-08T06:49:59.051Z,6.3
2017-11-08T06:51:17.710Z,6.4
2017-11-08T06:52:36.356Z,6.3
2017-11-08T06:53:55.053Z,6.4
2017-11-08T06:55:13.705Z,6.4
2017-11-08T06:56:32.373Z,6.4
2017-11-08T06:57:51.087Z,6.4
2017-11-08T06:59:09.735Z,6.3
2017-11-08T07:00:28.427Z,6.3
2017-11-08T07:01:47.088Z,6.3
2017-11-08T07:03:05.796Z,6.3
2017-11-08T07:04:24.464Z,6.3
2017-11-08T07:05:43.167Z,6.4
2017-11-08T07:07:01.880Z,6.4
2017-11-08T07:08:20.528Z,6.4
2017-11-08T07:09:39.241Z,6.4
2017-11-08T07:10:57.894Z,6.4
2017-11-08T07:12:16.593Z,6.4
2017-11-08T07:13:35.266Z,6.4
2017-11-08T07:14:53.916Z,6.4
2017-11-08T07:16:12.621Z,6.3
2017-11-08T07:17:31.331Z,6.3
2017-11-08T07:18:49.982Z,6.4
2017-11-08T07:20:08.629Z,6.4
2017-11-08T07:21:27.320Z,6.4
2017-11-08T07:22:45.991Z,6.5
2017-11-08T07:24:04.673Z,6.5
2017-11-08T07:25:23.327Z,6.5
2017-11-08T07:26:41.976Z,6.5
2017-11-08T07:28:00.670Z,6.5
2017-11-08T07:29:19.325Z,6.4
2017-11-08T07:30:38.016Z,6.5
2017-11-08T07:31:56.665Z,6.5
2017-11-08T07:33:15.363Z,6.5
2017-11-08T07:34:34.059Z,6.5
2017-11-08T07:35:52.737Z,6.5
2017-11-08T07:37:11.396Z,6.5
2017-11-08T07:38:30.105Z,6.5
2017-11-08T07:39:48.777Z,6.5
2017-11-08T07:41:07.414Z,6.5
2017-11-08T07:42:26.063Z,6.5
2017-11-08T07:43:44.750Z,6.6
2017-11-08T07:45:03.393Z,6.7
2017-11-08T07:46:22.097Z,6.7
2017-11-08T07:47:40.773Z,6.7
2017-11-08T07:48:59.442Z,6.7
2017-11-08T07:50:18.093Z,6.8
2017-11-08T07:51:36.745Z,6.8
2017-11-08T07:52:55.390Z,6.8
2017-11-08T07:54:14.102Z,6.9
2017-11-08T07:55:32.784Z,6.8
2017-11-08T07:56:51.488Z,6.8
2017-11-08T07:58:10.130Z,6.8
2017-11-08T07:59:28.806Z,6.9
2017-11-08T08:00:47.456Z,6.9
2017-11-08T08:02:06.108Z,6.9
2017-11-08T08:03:24.762Z,6.9
2017-11-08T08:04:43.453Z,7
2017-11-08T08:06:02.108Z,7.1
2017-11-08T08:07:20.769Z,7.1
2017-11-08T08:08:39.421Z,7.1
2017-11-08T08:09:58.086Z,7.1
2017-11-08T08:11:16.793Z,7.1
2017-11-08T08:12:35.530Z,7.1
2017-11-08T08:13:54.220Z,7.1
2017-11-08T08:15:12.942Z,7.3
2017-11-08T08:16:31.618Z,7.4
2017-11-08T08:17:50.306Z,7.4
2017-11-08T08:19:08.989Z,7.4
2017-11-08T08:20:27.645Z,7.3
2017-11-08T08:21:46.297Z,7.4
2017-11-08T08:23:04.969Z,7.4
2017-11-08T08:24:23.635Z,7.6
2017-11-08T08:25:42.307Z,7.6
2017-11-08T08:27:00.978Z,7.6
2017-11-08T08:28:19.640Z,7.7
2017-11-08T08:29:38.296Z,7.8
2017-11-08T08:30:56.972Z,7.9
2017-11-08T08:32:15.645Z,8.1
2017-11-08T08:33:34.315Z,8.2
2017-11-08T08:34:52.958Z,8.4
2017-11-08T08:36:11.622Z,8.6
2017-11-08T08:37:30.278Z,8.6
2017-11-08T08:38:48.967Z,8.6
2017-11-08T08:40:07.663Z,8.3
2017-11-08T08:41:26.318Z,8.2
2017-11-08T08:42:45.016Z,8.3
2017-11-08T08:44:03.669Z,8.3
2017-11-08T08:45:22.317Z,8.3
2017-11-08T08:46:41.055Z,8.4
2017-11-08T08:47:59.722Z,8.5
2017-11-08T08:49:18.369Z,8.4
2017-11-08T08:50:37.028Z,8.4
2017-11-08T08:51:55.709Z,8.3
2017-11-08T08:53:14.355Z,8.3
2017-11-08T08:54:33.001Z,8.2
2017-11-08T08:55:51.661Z,8.3
2017-11-08T08:57:10.369Z,8.4
2017-11-08T08:58:29.024Z,8.5
2017-11-08T08:59:47.719Z,8.7
2017-11-08T09:01:06.371Z,8.8
2017-11-08T09:02:25.081Z,8.9
2017-11-08T09:03:43.792Z,9
2017-11-08T09:05:02.439Z,8.9
2017-11-08T09:06:21.133Z,8.9
2017-11-08T09:07:39.790Z,8.9
2017-11-08T09:08:58.472Z,8.9
2017-11-08T09:10:17.122Z,8.7
2017-11-08T09:11:35.775Z,8.8
2017-11-08T09:12:54.459Z,8.8
2017-11-08T09:14:13.127Z,8.8
2017-11-08T09:15:31.804Z,8.9
2017-11-08T09:16:50.470Z,9
2017-11-08T09:18:09.157Z,9.1
2017-11-08T09:19:27.805Z,9
2017-11-08T09:20:46.490Z,8.7
2017-11-08T09:22:05.229Z,8.5
2017-11-08T09:23:23.962Z,8.4
2017-11-08T09:24:42.635Z,8.4
2017-11-08T09:26:01.325Z,8.4
2017-11-08T09:27:19.975Z,8.3
2017-11-08T09:28:38.708Z,8.2
2017-11-08T09:29:57.356Z,8.2
2017-11-08T09:31:16.007Z,8.3
2017-11-08T09:32:34.660Z,8.4
2017-11-08T09:33:53.344Z,8.5
2017-11-08T09:35:12.047Z,8.6
2017-11-08T09:36:30.696Z,8.6
2017-11-08T09:37:49.341Z,8.6
2017-11-08T09:39:08.015Z,8.7
2017-11-08T09:40:26.673Z,8.9
2017-11-08T09:41:45.353Z,8.9
2017-11-08T09:43:04.016Z,9
2017-11-08T09:44:22.685Z,9
2017-11-08T09:45:41.334Z,9
2017-11-08T09:46:59.995Z,8.9
2017-11-08T09:48:18.689Z,9
2017-11-08T09:49:37.391Z,9
2017-11-08T09:50:56.044Z,8.9
2017-11-08T09:52:14.693Z,9
2017-11-08T09:53:33.343Z,8.9
2017-11-08T09:54:52.014Z,9
2017-11-08T09:56:10.704Z,9
2017-11-08T09:57:29.363Z,9.1
2017-11-08T09:58:48.064Z,9.2
2017-11-08T10:00:06.771Z,9.3
2017-11-08T10:01:25.427Z,9.3
2017-11-08T10:02:44.078Z,9.3
2017-11-08T10:04:02.734Z,9.3
2017-11-08T10:05:21.502Z,9.4
2017-11-08T10:06:40.206Z,9.4
2017-11-08T10:07:58.902Z,9.5
2017-11-08T10:09:17.549Z,9.6
2017-11-08T10:10:36.217Z,9.7
2017-11-08T10:11:54.936Z,9.7
2017-11-08T10:13:13.636Z,9.5
2017-11-08T10:14:32.288Z,9.7
2017-11-08T10:15:50.989Z,9.9
2017-11-08T10:17:09.677Z,10.1
2017-11-08T10:18:28.400Z,10.1
2017-11-08T10:19:47.098Z,10
2017-11-08T10:21:05.790Z,9.9
2017-11-08T10:22:24.438Z,9.8
2017-11-08T10:23:43.093Z,9.8
2017-11-08T10:25:01.741Z,9.9
2017-11-08T10:26:20.441Z,10
2017-11-08T10:27:39.098Z,9.9
2017-11-08T10:28:57.799Z,9.8
2017-11-08T10:30:16.471Z,9.6
2017-11-08T10:31:35.217Z,9.7
2017-11-08T10:32:53.931Z,9.6
2017-11-08T10:34:12.573Z,9.4
2017-11-08T10:35:31.226Z,9.4
2017-11-08T10:36:49.940Z,9.4
2017-11-08T10:38:08.593Z,9.3
2017-11-08T10:39:27.249Z,9.3
2017-11-08T10:40:45.905Z,9.3
2017-11-08T10:42:04.536Z,9.3
2017-11-08T10:43:23.207Z,9.2
2017-11-08T10:44:41.871Z,9.3
2017-11-08T10:46:00.519Z,9.4
2017-11-08T10:47:19.192Z,9.5
2017-11-08T10:48:37.892Z,9.5
2017-11-08T10:49:56.595Z,9.7
2017-11-08T10:51:15.299Z,9.7
2017-11-08T10:52:33.985Z,9.7
2017-11-08T10:53:52.632Z,9.6
2017-11-08T10:55:11.280Z,9.6
2017-11-08T10:56:29.960Z,9.5
2017-11-08T10:57:48.624Z,9.6
2017-11-08T10:59:07.272Z,9.6
2017-11-08T11:00:25.925Z,9.6
2017-11-08T11:01:44.635Z,9.7
2017-11-08T11:03:03.307Z,9.7
2017-11-08T11:04:21.956Z,9.7
2017-11-08T11:05:40.613Z,9.5
2017-11-08T11:06:59.264Z,9.6
2017-11-08T11:08:17.997Z,9.4
2017-11-08T11:09:36.664Z,9.3
2017-11-08T11:10:55.316Z,9.2
2017-11-08T11:12:13.964Z,9.1
2017-11-08T11:13:32.639Z,9.1
2017-11-08T11:14:51.293Z,9.1
2017-11-08T11:16:09.961Z,9.1
2017-11-08T11:17:28.630Z,9
2017-11-08T11:18:47.343Z,9.1
2017-11-08T11:20:06.001Z,9.1
2017-11-08T11:21:24.670Z,9
2017-11-08T11:22:43.330Z,8.9
2017-11-08T11:24:02.018Z,8.9
2017-11-08T11:25:20.720Z,8.9
2017-11-08T11:26:39.372Z,8.8
2017-11-08T11:27:58.061Z,8.8
2017-11-08T11:29:16.745Z,8.7
2017-11-08T11:30:35.415Z,8.8
2017-11-08T11:31:54.113Z,8.9
2017-11-08T11:33:12.787Z,8.9
2017-11-08T11:34:31.495Z,8.9
2017-11-08T11:35:50.155Z,8.9
2017-11-08T11:37:08.860Z,9
2017-11-08T11:38:27.512Z,9
2017-11-08T11:39:46.198Z,9
2017-11-08T11:41:04.896Z,9
2017-11-08T11:42:23.555Z,9.1
2017-11-08T11:43:42.211Z,9.1
2017-11-08T11:45:00.934Z,9.2
2017-11-08T11:46:19.606Z,9.2
2017-11-08T11:47:38.253Z,9.2
2017-11-08T11:48:56.905Z,9.1
2017-11-08T11:50:15.575Z,9
2017-11-08T11:51:34.223Z,8.9
2017-11-08T11:52:52.880Z,8.9
2017-11-08T11:54:11.533Z,8.9
2017-11-08T11:55:30.225Z,8.8
2017-11-08T11:56:48.923Z,8.8
2017-11-08T11:58:07.605Z,8.8
2017-11-08T11:59:26.274Z,8.8
2017-11-08T12:00:44.995Z,8.7
2017-11-08T12:02:03.701Z,8.7
2017-11-08T12:03:22.356Z,8.7
2017-11-08T12:04:41.013Z,8.7
2017-11-08T12:05:59.715Z,8.7
2017-11-08T12:07:18.362Z,8.7
2017-11-08T12:08:37.058Z,8.6
2017-11-08T12:09:55.769Z,8.6
2017-11-08T12:11:14.468Z,8.5
2017-11-08T12:12:33.114Z,8.5
2017-11-08T12:13:51.768Z,8.5
2017-11-08T12:15:10.418Z,8.5
2017-11-08T12:16:29.117Z,8.5
2017-11-08T12:17:47.773Z,8.5
2017-11-08T12:19:06.451Z,8.5
2017-11-08T12:20:25.105Z,8.5
2017-11-08T12:21:43.820Z,8.6
2017-11-08T12:23:02.521Z,8.6
2017-11-08T12:24:21.192Z,8.5
2017-11-08T12:25:39.870Z,8.5
2017-11-08T12:26:58.568Z,8.5
2017-11-08T12:28:17.235Z,8.5
2017-11-08T12:29:35.894Z,8.6
2017-11-08T12:30:54.569Z,8.7
2017-11-08T12:32:13.246Z,8.7
2017-11-08T12:33:31.917Z,8.6
2017-11-08T12:34:50.610Z,8.6
2017-11-08T12:36:09.320Z,8.6
2017-11-08T12:37:28.004Z,8.6
2017-11-08T12:38:46.710Z,8.6
2017-11-08T12:40:05.362Z,8.6
2017-11-08T12:41:24.007Z,8.5
2017-11-08T12:42:42.702Z,8.5
2017-11-08T12:44:01.357Z,8.5
2017-11-08T12:45:20.038Z,8.4
2017-11-08T12:46:38.698Z,8.4
2017-11-08T12:47:57.368Z,8.3
2017-11-08T12:49:16.031Z,8.3
2017-11-08T12:50:34.684Z,8.3
2017-11-08T12:51:53.383Z,8.4
2017-11-08T12:53:12.053Z,8.4
2017-11-08T12:54:30.737Z,8.5
2017-11-08T12:55:49.479Z,8.5
2017-11-08T12:57:08.133Z,8.4
2017-11-08T12:58:26.832Z,8.5
2017-11-08T12:59:45.484Z,8.5
2017-11-08T13:01:04.133Z,8.5
2017-11-08T13:02:22.815Z,8.6
2017-11-08T13:03:41.541Z,8.5
2017-11-08T13:05:00.192Z,8.5
2017-11-08T13:06:18.858Z,8.5
2017-11-08T13:07:37.504Z,8.5
2017-11-08T13:08:56.179Z,8.5
2017-11-08T13:10:14.846Z,8.6
2017-11-08T13:11:33.497Z,8.6
2017-11-08T13:12:52.153Z,8.6
2017-11-08T13:14:10.852Z,8.7
2017-11-08T13:15:29.545Z,8.7
2017-11-08T13:16:48.194Z,8.7
2017-11-08T13:18:06.846Z,8.8
2017-11-08T13:19:25.502Z,8.8
2017-11-08T13:20:44.174Z,8.8
2017-11-08T13:22:02.830Z,8.6
2017-11-08T13:23:21.480Z,8.6
2017-11-08T13:24:40.146Z,8.6
2017-11-08T13:25:58.796Z,8.6
2017-11-08T13:27:17.440Z,8.6
2017-11-08T13:28:36.086Z,8.6
2017-11-08T13:29:54.776Z,8.6
2017-11-08T13:31:13.426Z,8.6
2017-11-08T13:32:32.128Z,8.5
2017-11-08T13:33:50.787Z,8.5
2017-11-08T13:35:09.463Z,8.4
2017-11-08T13:36:28.122Z,8.3
2017-11-08T13:37:46.779Z,8.3
2017-11-08T13:39:05.476Z,8.3
2017-11-08T13:40:24.216Z,8.3
2017-11-08T13:41:42.873Z,8.3
2017-11-08T13:43:01.550Z,8.3
2017-11-08T13:44:20.203Z,8.3
2017-11-08T13:45:38.897Z,8.2
2017-11-08T13:46:57.609Z,8.3
2017-11-08T13:48:16.255Z,8.3
2017-11-08T13:49:34.900Z,8.2
2017-11-08T13:50:53.574Z,8.2
2017-11-08T13:52:12.224Z,8.2
2017-11-08T13:53:30.950Z,8.2
2017-11-08T13:54:49.617Z,8.3
2017-11-08T13:56:08.338Z,8.3
2017-11-08T13:57:26.981Z,8.3
2017-11-08T13:58:45.641Z,8.2
2017-11-08T14:00:04.314Z,8.2
2017-11-08T14:01:23.001Z,8.2
2017-11-08T14:02:41.693Z,8.2
2017-11-08T14:04:00.371Z,8.3
2017-11-08T14:05:19.099Z,8.2
2017-11-08T14:06:37.809Z,8.1
2017-11-08T14:07:56.488Z,8.1
2017-11-08T14:09:15.182Z,8.2
2017-11-08T14:10:33.834Z,8.2
2017-11-08T14:11:52.536Z,8.2
2017-11-08T14:13:11.238Z,8.2
2017-11-08T14:14:29.895Z,8.2
2017-11-08T14:15:48.548Z,8.1
2017-11-08T14:17:07.243Z,8.1
2017-11-08T14:18:25.906Z,8.1
2017-11-08T14:19:44.557Z,8.1
2017-11-08T14:21:03.213Z,8.2
2017-11-08T14:22:21.892Z,8.2
2017-11-08T14:23:40.583Z,8.2
2017-11-08T14:24:59.254Z,8.2
2017-11-08T14:26:17.921Z,8.2
2017-11-08T14:27:36.603Z,8.3
2017-11-08T14:28:55.261Z,8.3
2017-11-08T14:30:13.938Z,8.2
2017-11-08T14:31:32.581Z,8.3
2017-11-08T14:32:51.307Z,8.3
2017-11-08T14:34:09.995Z,8.3
2017-11-08T14:35:28.642Z,8.2
2017-11-08T14:36:47.310Z,8.2
2017-11-08T14:38:06.012Z,8.3
2017-11-08T14:39:24.678Z,8.3
2017-11-08T14:40:43.390Z,8.3
2017-11-08T14:42:02.040Z,8.3
2017-11-08T14:43:20.730Z,8.4
2017-11-08T14:44:39.420Z,8.5
2017-11-08T14:45:58.074Z,8.5
2017-11-08T14:47:16.779Z,8.5
2017-11-08T14:48:35.461Z,8.5
2017-11-08T14:49:54.153Z,8.5
2017-11-08T14:51:12.803Z,8.4
2017-11-08T14:52:31.463Z,8.4
2017-11-08T14:53:50.124Z,8.4
2017-11-08T14:55:08.790Z,8.3
2017-11-08T14:56:27.476Z,8.3
2017-11-08T14:57:46.119Z,8.3
2017-11-08T14:59:04.787Z,8.3
2017-11-08T15:00:23.437Z,8.3
2017-11-08T15:01:42.087Z,8.3
2017-11-08T15:03:00.765Z,8.2
2017-11-08T15:04:19.445Z,8.2
2017-11-08T15:05:38.148Z,8.2
2017-11-08T15:06:56.794Z,8.3
2017-11-08T15:08:15.463Z,8.3
2017-11-08T15:09:34.146Z,8.3
2017-11-08T15:10:52.856Z,8.4
2017-11-08T15:12:11.535Z,8.4
2017-11-08T15:13:30.196Z,8.3
2017-11-08T15:14:48.922Z,8.3
2017-11-08T15:16:07.591Z,8.3
2017-11-08T15:17:26.241Z,8.3
2017-11-08T15:18:44.899Z,8.3
2017-11-08T15:20:03.582Z,8.3
2017-11-08T15:21:22.302Z,8.3
2017-11-08T15:22:40.987Z,8.3
2017-11-08T15:23:59.633Z,8.3
2017-11-08T15:25:18.348Z,8.3
2017-11-08T15:26:37.013Z,8.3
2017-11-08T15:27:55.720Z,8.3
2017-11-08T15:29:14.365Z,8.1
2017-11-08T15:30:33.024Z,8.1
2017-11-08T15:31:51.675Z,8
2017-11-08T15:33:10.349Z,8
2017-11-08T15:34:29.079Z,8
2017-11-08T15:35:47.764Z,8
2017-11-08T15:37:06.466Z,7.9
2017-11-08T15:38:25.157Z,8
2017-11-08T15:39:43.851Z,8
2017-11-08T15:41:02.580Z,8.1
2017-11-08T15:42:21.251Z,8.1
2017-11-08T15:43:39.932Z,8.1
2017-11-08T15:44:58.599Z,8.1
2017-11-08T15:46:17.291Z,8
2017-11-08T15:47:35.994Z,8
2017-11-08T15:48:54.652Z,7.9
2017-11-08T15:50:13.307Z,8
2017-11-08T15:51:32.025Z,8.1
2017-11-08T15:52:50.678Z,8
2017-11-08T15:54:09.325Z,8.1
2017-11-08T15:55:28.015Z,8
2017-11-08T15:56:46.686Z,8
2017-11-08T15:58:05.344Z,8
2017-11-08T15:59:23.999Z,8
2017-11-08T16:00:42.652Z,8
2017-11-08T16:02:01.329Z,7.9
2017-11-08T16:03:19.985Z,7.8
2017-11-08T16:04:38.658Z,7.8
2017-11-08T16:05:57.364Z,7.7
2017-11-08T16:07:16.105Z,7.7
2017-11-08T16:08:34.760Z,7.7
2017-11-08T16:09:53.435Z,7.7
2017-11-08T16:11:12.089Z,7.7
2017-11-08T16:12:30.775Z,7.7
2017-11-08T16:13:49.473Z,7.8
2017-11-08T16:15:08.134Z,7.8
2017-11-08T16:16:26.834Z,7.8
2017-11-08T16:17:45.490Z,7.8
2017-11-08T16:19:04.137Z,7.9
2017-11-08T16:20:22.792Z,7.8
2017-11-08T16:21:41.441Z,7.8
2017-11-08T16:23:00.125Z,7.8
2017-11-08T16:24:18.776Z,7.7
2017-11-08T16:25:37.438Z,7.7
2017-11-08T16:26:56.094Z,7.6
2017-11-08T16:28:14.786Z,7.6
2017-11-08T16:29:33.456Z,7.6
2017-11-08T16:30:52.108Z,7.7
2017-11-08T16:32:10.757Z,7.7
2017-11-08T16:33:29.426Z,7.6
2017-11-08T16:34:48.074Z,7.6
2017-11-08T16:36:06.758Z,7.7
2017-11-08T16:37:25.409Z,7.6
2017-11-08T16:38:44.118Z,7.6
2017-11-08T16:40:02.825Z,7.6
2017-11-08T16:41:21.498Z,7.6
2017-11-08T16:42:40.154Z,7.6
2017-11-08T16:43:58.833Z,7.6
2017-11-08T16:45:17.518Z,7.6
2017-11-08T16:46:36.168Z,7.6
2017-11-08T16:47:54.849Z,7.6
2017-11-08T16:49:13.534Z,7.6
2017-11-08T16:50:32.219Z,7.5
2017-11-08T16:51:50.866Z,7.6
2017-11-08T16:53:09.522Z,7.5
2017-11-08T16:54:28.240Z,7.6
2017-11-08T16:55:46.893Z,7.6
2017-11-08T16:57:05.550Z,7.5
2017-11-08T16:58:24.197Z,7.5
2017-11-08T16:59:42.854Z,7.6
2017-11-08T17:01:01.553Z,7.5
2017-11-08T17:02:20.196Z,7.5
2017-11-08T17:03:38.883Z,7.6
2017-11-08T17:04:57.538Z,7.6
2017-11-08T17:06:16.210Z,7.6
2017-11-08T17:07:34.860Z,7.6
2017-11-08T17:08:53.523Z,7.6
2017-11-08T17:10:12.213Z,7.5
2017-11-08T17:11:30.861Z,7.5
2017-11-08T17:12:49.519Z,7.5
2017-11-08T17:14:08.184Z,7.5
2017-11-08T17:15:26.855Z,7.5
2017-11-08T17:16:45.557Z,7.5
2017-11-08T17:18:04.202Z,7.5
2017-11-08T17:19:22.904Z,7.4
2017-11-08T17:20:41.572Z,7.4
2017-11-08T17:22:00.222Z,7.5
2017-11-08T17:23:18.881Z,7.5
2017-11-08T17:24:37.528Z,7.5
2017-11-08T17:25:56.210Z,7.6
2017-11-08T17:27:14.915Z,7.5
2017-11-08T17:28:33.610Z,7.6
2017-11-08T17:29:52.272Z,7.6
2017-11-08T17:31:10.963Z,7.5
2017-11-08T17:32:29.665Z,7.5
2017-11-08T17:33:48.338Z,7.4
2017-11-08T17:35:06.986Z,7.4
2017-11-08T17:36:25.670Z,7.3
2017-11-08T17:37:44.318Z,7.3
2017-11-08T17:39:03.019Z,7.3
2017-11-08T17:40:21.679Z,7.4
2017-11-08T17:41:40.410Z,7.4
2017-11-08T17:42:59.062Z,7.4
2017-11-08T17:44:17.712Z,7.4
2017-11-08T17:45:36.367Z,7.3
2017-11-08T17:46:55.043Z,7.3
2017-11-08T17:48:13.744Z,7.2
2017-11-08T17:49:32.414Z,7.2
2017-11-08T17:50:51.067Z,7.2
2017-11-08T17:52:09.732Z,7.3
2017-11-08T17:53:28.395Z,7.3
2017-11-08T17:54:47.088Z,7.4
2017-11-08T17:56:05.792Z,7.5
2017-11-08T17:57:24.523Z,7.5
2017-11-08T17:58:43.202Z,7.5
2017-11-08T18:00:01.864Z,7.5
2017-11-08T18:01:20.562Z,7.5
2017-11-08T18:02:39.220Z,7.5
2017-11-08T18:03:57.879Z,7.5
2017-11-08T18:05:16.605Z,7.5
2017-11-08T18:06:35.257Z,7.4